Time;durP1;ratioP1;P1;durP2;ratioP2;P2;SDS_P1;SDS_P2;PMS_P1;PMS_P2;Temp;Humidity;BMP_temperature;BMP_pressure;BME280_temperature;BME280_humidity;BME280_pressure;Samples;Min_cycle;Max_cycle;Signal;HPM_P1;HPM_P2
2022/03/27 00:01:19;;;;;;;19.07;17.07;;;12.80;94.20;;;;;;5054718;28;20503;-67
2022/03/27 00:03:45;;;;;;;19.93;16.27;;;12.80;94.60;;;;;;5055035;28;20428;-67
2022/03/27 00:06:11;;;;;;;20.30;16.00;;;12.80;94.50;;;;;;5054384;28;20406;-67
2022/03/27 00:08:37;;;;;;;17.87;15.97;;;12.70;94.70;;;;;;5054964;28;20401;-66
2022/03/27 00:13:47;;;;;;;22.27;17.10;;;12.70;95.20;;;;;;5054500;28;20258;-67
2022/03/27 00:16:13;;;;;;;17.50;15.40;;;12.70;95.20;;;;;;5053938;28;20952;-67
2022/03/27 00:18:41;;;;;;;18.90;15.23;;;12.60;95.30;;;;;;5054412;28;20176;-67
2022/03/27 00:21:07;;;;;;;19.57;15.80;;;12.60;95.60;;;;;;5053598;28;20468;-67
2022/03/27 00:23:33;;;;;;;20.87;17.83;;;12.40;96.30;;;;;;5053033;28;20464;-66
2022/03/27 00:25:59;;;;;;;18.40;15.60;;;12.40;96.60;;;;;;5053726;28;20456;-67
2022/03/27 00:28:25;;;;;;;19.67;16.13;;;12.40;96.80;;;;;;5054726;28;20417;-67
2022/03/27 00:30:52;;;;;;;20.43;16.93;;;12.30;96.80;;;;;;5054451;28;20197;-66
2022/03/27 00:33:18;;;;;;;20.73;16.80;;;12.30;96.70;;;;;;5053873;28;20452;-66
2022/03/27 00:35:45;;;;;;;18.90;16.50;;;12.20;96.60;;;;;;5053173;28;20506;-66
2022/03/27 00:38:11;;;;;;;18.80;16.00;;;12.20;96.50;;;;;;5053786;28;20413;-66
2022/03/27 00:40:37;;;;;;;19.10;17.10;;;12.20;96.60;;;;;;5054084;28;20428;-67
2022/03/27 00:43:04;;;;;;;19.87;16.23;;;12.20;96.60;;;;;;5053410;28;20913;-67
2022/03/27 00:45:30;;;;;;;18.17;16.27;;;12.20;96.70;;;;;;5054483;28;20531;-67
2022/03/27 00:47:56;;;;;;;20.23;16.40;;;12.20;96.50;;;;;;5053721;28;20419;-68
2022/03/27 00:50:22;;;;;;;17.50;15.80;;;12.10;96.30;;;;;;5053837;28;20638;-67
2022/03/27 00:52:47;;;;;;;18.47;16.43;;;12.10;96.00;;;;;;5054177;28;20257;-67
2022/03/27 00:55:13;;;;;;;18.33;16.43;;;12.10;96.10;;;;;;5053507;28;20556;-67
2022/03/27 00:57:39;;;;;;;18.07;16.17;;;12.00;96.10;;;;;;5052868;28;20260;-66
2022/03/27 01:00:09;;;;;;;18.37;15.93;;;12.00;96.40;;;;;;5053220;28;20185;-67
2022/03/27 01:02:36;;;;;;;20.60;16.60;;;12.00;96.20;;;;;;5053922;28;20185;-66
2022/03/27 01:05:08;;;;;;;17.77;15.87;;;12.00;96.00;;;;;;5053318;28;20749;-67
2022/03/27 01:07:34;;;;;;;17.33;15.47;;;12.00;96.10;;;;;;5053846;28;20415;-67
2022/03/27 01:10:00;;;;;;;17.63;15.83;;;11.90;96.20;;;;;;5053186;28;20458;-67
2022/03/27 01:12:35;;;;;;;19.00;17.03;;;11.90;96.60;;;;;;5053790;28;20244;-67
2022/03/27 01:15:02;;;;;;;18.57;16.40;;;11.90;96.40;;;;;;5053204;28;20504;-67
2022/03/27 01:17:29;;;;;;;25.23;17.53;;;11.80;96.30;;;;;;5053609;28;20405;-67
2022/03/27 01:19:57;;;;;;;17.30;15.50;;;11.80;96.50;;;;;;5053467;28;20458;-67
2022/03/27 01:22:23;;;;;;;19.70;17.40;;;11.70;96.50;;;;;;5053352;28;20427;-67
2022/03/27 01:24:51;;;;;;;19.73;16.60;;;11.70;96.50;;;;;;5052821;28;20451;-66
2022/03/27 01:27:17;;;;;;;16.77;15.10;;;11.70;96.60;;;;;;5052900;28;21030;-66
2022/03/27 01:29:44;;;;;;;19.07;16.57;;;11.70;96.60;;;;;;5053381;28;20923;-67
2022/03/27 01:32:14;;;;;;;20.20;16.70;;;11.70;96.70;;;;;;5052733;28;20460;-67
2022/03/27 01:34:47;;;;;;;19.33;17.40;;;11.60;96.60;;;;;;5053501;28;20865;-67
2022/03/27 01:37:14;;;;;;;18.37;16.50;;;11.60;96.70;;;;;;5052750;28;20412;-67
2022/03/27 01:39:40;;;;;;;20.03;16.27;;;11.60;97.00;;;;;;5051761;28;20785;-66
2022/03/27 01:42:06;;;;;;;20.10;16.70;;;11.60;97.10;;;;;;5052651;28;20422;-67
2022/03/27 01:44:32;;;;;;;18.80;16.80;;;11.60;97.20;;;;;;5053069;28;20781;-67
2022/03/27 01:46:59;;;;;;;18.40;16.50;;;11.60;97.00;;;;;;5052806;28;20421;-74
2022/03/27 01:49:26;;;;;;;20.30;16.90;;;11.50;96.80;;;;;;5053070;28;20436;-66
2022/03/27 01:51:52;;;;;;;19.57;17.20;;;11.50;97.00;;;;;;5052940;28;20509;-67
2022/03/27 01:54:19;;;;;;;18.93;16.90;;;11.50;97.00;;;;;;5052388;28;20424;-66
2022/03/27 01:56:45;;;;;;;20.50;16.60;;;11.60;97.20;;;;;;5052958;28;20185;-67
2022/03/27 01:59:11;;;;;;;19.20;16.70;;;11.50;97.20;;;;;;5034490;28;20420;-66
2022/03/27 02:01:37;;;;;;;21.70;16.77;;;11.60;97.60;;;;;;5053041;28;20434;-66
2022/03/27 02:04:04;;;;;;;19.73;15.90;;;11.60;97.70;;;;;;5052233;28;20788;-67
2022/03/27 02:06:31;;;;;;;18.00;15.63;;;11.70;98.00;;;;;;5051813;28;20474;-67
2022/03/27 02:08:59;;;;;;;18.67;15.63;;;11.70;97.80;;;;;;5052754;28;20472;-67
2022/03/27 02:11:25;;;;;;;19.87;15.60;;;11.70;97.70;;;;;;5051747;28;20455;-67
2022/03/27 02:13:51;;;;;;;17.80;15.73;;;11.80;97.90;;;;;;5052765;28;20412;-67
2022/03/27 02:16:17;;;;;;;22.60;16.00;;;11.80;97.70;;;;;;5052308;28;20447;-67
2022/03/27 02:18:43;;;;;;;20.40;17.10;;;11.80;97.40;;;;;;5052873;28;20415;-67
2022/03/27 02:21:09;;;;;;;18.00;16.20;;;11.80;97.50;;;;;;5052096;28;20456;-67
2022/03/27 02:23:35;;;;;;;20.80;15.80;;;11.70;97.20;;;;;;5051294;28;20431;-67
2022/03/27 02:26:01;;;;;;;19.77;15.67;;;11.70;97.50;;;;;;5052061;28;20783;-71
2022/03/27 02:28:27;;;;;;;19.23;14.97;;;11.70;97.50;;;;;;5052603;28;20894;-66
2022/03/27 02:30:53;;;;;;;18.57;14.80;;;11.60;96.80;;;;;;5052443;28;20705;-66
2022/03/27 02:33:19;;;;;;;20.17;16.80;;;11.60;96.90;;;;;;5051846;28;20221;-66
2022/03/27 02:35:45;;;;;;;18.37;15.53;;;11.50;97.00;;;;;;5056190;28;20454;-67
2022/03/27 02:38:12;;;;;;;17.80;15.40;;;11.50;97.20;;;;;;5058539;28;20188;-67
2022/03/27 02:40:40;;;;;;;17.03;15.17;;;11.40;97.40;;;;;;5059045;28;20509;-67
2022/03/27 02:43:06;;;;;;;17.53;15.63;;;11.40;97.80;;;;;;5058191;28;20419;-67
2022/03/27 02:45:32;;;;;;;18.93;15.10;;;11.30;97.80;;;;;;5059272;28;20430;-66
2022/03/27 02:47:59;;;;;;;22.30;17.50;;;11.30;97.70;;;;;;5059002;28;20436;-67
2022/03/27 02:50:26;;;;;;;18.03;16.13;;;11.20;98.20;;;;;;5058358;28;20517;-67
2022/03/27 02:52:52;;;;;;;17.80;15.77;;;11.20;98.30;;;;;;5058961;28;20421;-66
2022/03/27 02:55:19;;;;;;;21.53;16.97;;;11.20;97.90;;;;;;5057103;28;20497;-67
2022/03/27 02:57:45;;;;;;;18.30;16.40;;;11.10;97.90;;;;;;5059006;28;20430;-66
2022/03/27 03:00:12;;;;;;;18.73;16.80;;;11.10;98.10;;;;;;5058376;28;20408;-67
2022/03/27 03:02:37;;;;;;;22.80;18.00;;;11.00;98.00;;;;;;5059116;28;20442;-66
2022/03/27 03:05:04;;;;;;;23.00;17.63;;;11.00;98.00;;;;;;5058553;28;20510;-75
2022/03/27 03:07:31;;;;;;;18.00;15.03;;;10.90;98.70;;;;;;5059360;28;20208;-66
2022/03/27 03:09:57;;;;;;;18.63;16.63;;;11.00;99.30;;;;;;5057620;28;20512;-66
2022/03/27 03:12:23;;;;;;;20.50;17.70;;;11.00;99.80;;;;;;5058089;28;20538;-67
2022/03/27 03:14:50;;;;;;;18.93;15.60;;;11.00;99.90;;;;;;5058811;28;20184;-67
2022/03/27 03:17:16;;;;;;;19.00;16.07;;;11.10;99.90;;;;;;5058142;28;20182;-67
2022/03/27 03:19:42;;;;;;;18.17;16.27;;;11.20;99.90;;;;;;5058479;28;20413;-67
2022/03/27 03:22:08;;;;;;;21.67;16.30;;;11.20;99.90;;;;;;5058148;28;20169;-66
2022/03/27 03:24:34;;;;;;;20.93;17.10;;;11.20;99.90;;;;;;5058681;28;20172;-66
2022/03/27 03:27:00;;;;;;;23.53;17.80;;;11.20;99.90;;;;;;5057518;28;20415;-67
2022/03/27 03:29:26;;;;;;;18.57;16.67;;;11.20;99.90;;;;;;5058079;28;20416;-67
2022/03/27 03:31:52;;;;;;;19.03;17.03;;;11.20;99.90;;;;;;5058127;28;20472;-67
2022/03/27 03:34:17;;;;;;;19.33;16.37;;;11.30;99.90;;;;;;5057622;28;20907;-66
2022/03/27 03:36:44;;;;;;;22.23;17.70;;;11.30;99.90;;;;;;5058602;28;20184;-67
2022/03/27 03:39:10;;;;;;;18.00;16.20;;;11.30;99.90;;;;;;5057919;28;20238;-67
2022/03/27 03:41:36;;;;;;;20.47;16.93;;;11.30;99.90;;;;;;5058764;28;20426;-66
2022/03/27 03:44:02;;;;;;;18.63;16.63;;;11.40;99.90;;;;;;5058229;28;20415;-67
2022/03/27 03:46:28;;;;;;;18.73;16.73;;;11.40;99.90;;;;;;5055658;28;20211;-67
2022/03/27 03:48:53;;;;;;;20.10;17.13;;;11.40;99.90;;;;;;5055036;28;20443;-67
2022/03/27 03:51:19;;;;;;;18.60;16.33;;;11.50;99.90;;;;;;5054590;28;20197;-66
2022/03/27 03:53:45;;;;;;;19.80;17.03;;;11.60;99.90;;;;;;5055254;28;20177;-67
2022/03/27 03:56:11;;;;;;;20.50;17.43;;;11.50;99.90;;;;;;5054618;28;20180;-67
2022/03/27 03:58:37;;;;;;;18.30;16.40;;;11.40;99.90;;;;;;5055111;28;20421;-67
2022/03/27 04:01:03;;;;;;;19.93;17.00;;;11.40;99.90;;;;;;5054864;28;20420;-67
2022/03/27 04:03:30;;;;;;;18.13;16.13;;;11.40;99.90;;;;;;5054218;28;20432;-66
2022/03/27 04:05:56;;;;;;;19.10;15.90;;;11.40;99.90;;;;;;5055037;28;20181;-66
2022/03/27 04:08:22;;;;;;;18.20;16.07;;;11.50;99.90;;;;;;5054107;28;20897;-67
2022/03/27 04:10:48;;;;;;;18.43;16.00;;;11.40;99.90;;;;;;5054896;28;20450;-67
2022/03/27 04:13:15;;;;;;;17.53;15.13;;;11.40;99.90;;;;;;5054303;28;20504;-67
2022/03/27 04:15:40;;;;;;;18.30;15.20;;;11.50;99.90;;;;;;5054823;28;20496;-67
2022/03/27 04:18:06;;;;;;;21.93;15.57;;;11.50;99.90;;;;;;5055123;28;20980;-67
2022/03/27 04:20:34;;;;;;;19.30;15.53;;;11.50;99.90;;;;;;5054535;28;20217;-66
2022/03/27 04:23:01;;;;;;;17.20;15.40;;;11.60;99.90;;;;;;5054695;28;20432;-67
2022/03/27 04:25:27;;;;;;;16.80;14.50;;;11.60;99.90;;;;;;5054109;28;20493;-66
2022/03/27 04:27:52;;;;;;;17.57;15.23;;;11.70;99.90;;;;;;5054682;28;20462;-67
2022/03/27 04:30:18;;;;;;;16.60;14.93;;;11.70;99.90;;;;;;5053931;28;20416;-67
2022/03/27 04:32:44;;;;;;;16.43;14.37;;;11.80;99.90;;;;;;5054551;28;20200;-67
2022/03/27 04:35:10;;;;;;;20.40;14.97;;;11.80;99.90;;;;;;5053626;28;20184;-67
2022/03/27 04:37:44;;;;;;;17.43;15.73;;;11.80;99.90;;;;;;5054198;28;20188;-67
2022/03/27 04:40:13;;;;;;;16.57;14.87;;;11.90;99.90;;;;;;5053802;28;20403;-69
2022/03/27 04:42:40;;;;;;;17.47;14.83;;;12.00;99.90;;;;;;5054424;28;20429;-66
2022/03/27 04:45:06;;;;;;;16.07;14.43;;;12.00;99.90;;;;;;5054271;28;20502;-67
2022/03/27 04:47:32;;;;;;;16.03;13.73;;;12.00;99.90;;;;;;5053682;28;20473;-67
2022/03/27 04:49:57;;;;;;;15.80;14.10;;;12.00;99.90;;;;;;5053321;28;20415;-67
2022/03/27 04:52:23;;;;;;;17.03;15.23;;;12.10;99.90;;;;;;5053520;28;20200;-67
2022/03/27 04:54:49;;;;;;;15.60;13.97;;;12.10;99.90;;;;;;5054150;28;20178;-67
2022/03/27 04:57:15;;;;;;;15.23;13.77;;;12.10;99.90;;;;;;5053472;28;20625;-67
2022/03/27 04:59:41;;;;;;;16.30;14.60;;;12.10;99.90;;;;;;5053826;28;20180;-67
2022/03/27 05:02:07;;;;;;;17.47;15.27;;;12.20;99.90;;;;;;5054273;28;20420;-67
2022/03/27 05:04:33;;;;;;;16.83;15.10;;;12.20;99.90;;;;;;5053054;28;20226;-67
2022/03/27 05:06:58;;;;;;;17.60;15.23;;;12.20;99.90;;;;;;5054143;28;20672;-67
2022/03/27 05:09:24;;;;;;;15.90;14.17;;;12.20;99.90;;;;;;5052971;28;20900;-67
2022/03/27 05:11:50;;;;;;;16.50;14.77;;;12.20;99.90;;;;;;5053365;28;20210;-67
2022/03/27 05:14:15;;;;;;;18.77;15.40;;;12.30;99.90;;;;;;5053140;28;20217;-67
2022/03/27 05:16:42;;;;;;;17.10;15.37;;;12.10;99.90;;;;;;5053600;28;20196;-66
2022/03/27 05:19:08;;;;;;;17.80;16.00;;;12.20;99.90;;;;;;5053602;28;20169;-67
2022/03/27 05:21:35;;;;;;;17.43;15.53;;;12.20;99.90;;;;;;5051290;28;20467;-67
2022/03/27 05:24:01;;;;;;;17.90;16.10;;;12.20;99.90;;;;;;5053607;28;20875;-67
2022/03/27 05:26:27;;;;;;;18.83;16.83;;;12.20;99.90;;;;;;5052933;28;20495;-67
2022/03/27 05:28:54;;;;;;;21.40;17.23;;;12.20;99.90;;;;;;5053738;28;20415;-67
2022/03/27 05:31:20;;;;;;;22.37;16.67;;;12.30;99.90;;;;;;5051191;28;20495;-67
2022/03/27 05:33:46;;;;;;;20.23;17.93;;;12.20;99.90;;;;;;5053348;28;20459;-67
2022/03/27 05:36:12;;;;;;;19.87;16.90;;;12.30;99.90;;;;;;5052030;28;20444;-75
2022/03/27 05:38:40;;;;;;;17.80;15.90;;;12.30;99.90;;;;;;5051970;28;20423;-67
2022/03/27 05:41:07;;;;;;;22.07;17.50;;;12.30;99.90;;;;;;5053256;28;20783;-67
2022/03/27 05:43:33;;;;;;;18.60;15.87;;;12.30;99.90;;;;;;5052633;28;20774;-66
2022/03/27 05:45:59;;;;;;;20.67;16.50;;;12.30;99.90;;;;;;5051958;28;20551;-67
2022/03/27 05:48:25;;;;;;;19.37;16.83;;;12.30;99.90;;;;;;5052263;28;20502;-66
2022/03/27 05:50:51;;;;;;;26.70;18.87;;;12.40;99.90;;;;;;5052989;28;20210;-67
2022/03/27 05:53:17;;;;;;;27.00;19.13;;;12.40;99.90;;;;;;5052526;28;20412;-67
2022/03/27 05:55:43;;;;;;;23.80;20.40;;;12.40;99.90;;;;;;5052761;28;20491;-67
2022/03/27 05:58:09;;;;;;;24.87;20.97;;;12.40;99.90;;;;;;5053268;28;20429;-66
2022/03/27 06:00:34;;;;;;;28.10;21.30;;;12.30;99.90;;;;;;5052338;28;20769;-67
2022/03/27 06:03:01;;;;;;;28.40;22.30;;;12.30;99.90;;;;;;5052591;28;20238;-67
2022/03/27 06:05:26;;;;;;;33.50;24.27;;;12.10;99.90;;;;;;5052251;28;20409;-67
2022/03/27 06:07:55;;;;;;;30.27;23.90;;;12.10;99.90;;;;;;5052832;28;20438;-67
2022/03/27 06:10:26;;;;;;;30.17;23.73;;;12.10;99.90;;;;;;5051656;28;20451;-67
2022/03/27 06:12:53;;;;;;;28.27;22.27;;;12.10;99.90;;;;;;5052837;28;20474;-66
2022/03/27 06:15:20;;;;;;;27.10;22.70;;;12.10;99.90;;;;;;5052073;28;20420;-67
2022/03/27 06:17:47;;;;;;;26.77;23.37;;;12.20;99.90;;;;;;5052722;28;20892;-67
2022/03/27 06:20:18;;;;;;;28.40;22.37;;;12.20;99.90;;;;;;5052869;28;20490;-67
2022/03/27 06:22:44;;;;;;;29.20;23.87;;;12.10;99.90;;;;;;5052691;28;20412;-67
2022/03/27 06:25:13;;;;;;;27.57;23.57;;;12.10;99.90;;;;;;5052587;28;20452;-67
2022/03/27 06:27:39;;;;;;;31.20;23.80;;;12.10;99.90;;;;;;5051965;28;20423;-67
2022/03/27 06:30:11;;;;;;;31.67;24.23;;;12.20;99.90;;;;;;5052382;28;20914;-67
2022/03/27 06:32:37;;;;;;;28.60;22.40;;;12.20;99.90;;;;;;5051568;28;20977;-67
2022/03/27 06:35:06;;;;;;;31.03;23.90;;;12.20;99.90;;;;;;5052320;28;20838;-67
2022/03/27 06:37:33;;;;;;;33.00;22.83;;;12.20;99.90;;;;;;5050640;28;20452;-67
2022/03/27 06:39:59;;;;;;;34.50;23.17;;;12.20;99.90;;;;;;5052636;28;20469;-67
2022/03/27 06:42:26;;;;;;;30.43;24.33;;;12.30;99.90;;;;;;5051803;28;20459;-67
2022/03/27 06:44:53;;;;;;;27.80;23.10;;;12.30;99.90;;;;;;5052106;28;20416;-67
2022/03/27 06:47:20;;;;;;;31.90;22.50;;;12.30;99.90;;;;;;5051755;28;20513;-67
2022/03/27 06:49:47;;;;;;;29.87;23.63;;;12.30;99.90;;;;;;5052343;28;20498;-67
2022/03/27 06:52:14;;;;;;;31.13;23.60;;;12.30;99.90;;;;;;5052230;28;20949;-67
2022/03/27 06:54:40;;;;;;;29.03;23.03;;;12.30;99.90;;;;;;5051627;28;20416;-67
2022/03/27 06:57:05;;;;;;;29.67;22.17;;;12.40;99.90;;;;;;5051088;28;20536;-67
2022/03/27 07:03:01;;;;;;;29.97;23.57;;;12.40;99.90;;;;;;5051546;28;20409;-67
2022/03/27 07:05:03;;;;;;;28.73;24.03;;;12.50;99.90;;;;;;5051891;28;20411;-67
2022/03/27 07:07:29;;;;;;;30.50;23.40;;;12.50;99.90;;;;;;5051567;28;20415;-67
2022/03/27 07:09:54;;;;;;;31.40;23.20;;;12.60;99.90;;;;;;5052124;28;20488;-67
2022/03/27 07:12:20;;;;;;;30.83;23.20;;;12.50;99.90;;;;;;5051870;28;20464;-67
2022/03/27 07:14:49;;;;;;;33.37;22.47;;;12.50;99.90;;;;;;5052118;28;20179;-67
2022/03/27 07:17:16;;;;;;;28.50;22.37;;;12.50;99.90;;;;;;5050664;28;20181;-67
2022/03/27 07:19:42;;;;;;;29.30;23.37;;;12.50;99.90;;;;;;5051544;28;20413;-67
2022/03/27 07:22:08;;;;;;;31.90;22.83;;;12.50;99.90;;;;;;5053090;28;20757;-67
2022/03/27 07:24:33;;;;;;;24.63;20.87;;;12.50;99.90;;;;;;5054938;28;20231;-67
2022/03/27 07:26:59;;;;;;;27.10;21.70;;;12.60;99.90;;;;;;5055749;28;20614;-67
2022/03/27 07:29:25;;;;;;;26.93;20.40;;;12.50;99.90;;;;;;5053974;28;20166;-67
2022/03/27 07:31:50;;;;;;;31.47;22.70;;;12.50;99.90;;;;;;5055187;28;20209;-67
2022/03/27 07:34:16;;;;;;;30.03;20.30;;;12.60;99.90;;;;;;5055350;28;20205;-67
2022/03/27 07:36:42;;;;;;;29.10;23.17;;;12.60;99.90;;;;;;5055014;28;20207;-67
2022/03/27 07:39:11;;;;;;;27.83;21.73;;;12.60;99.90;;;;;;5055543;28;20183;-67
2022/03/27 07:41:37;;;;;;;29.67;22.23;;;12.60;99.90;;;;;;5054834;28;20416;-67
2022/03/27 07:44:03;;;;;;;28.67;22.80;;;12.50;99.90;;;;;;5053954;28;20814;-67
2022/03/27 07:46:30;;;;;;;26.57;21.23;;;12.50;99.90;;;;;;5054823;28;20428;-67
2022/03/27 07:48:56;;;;;;;25.63;20.10;;;12.50;99.90;;;;;;5055298;28;20424;-66
2022/03/27 07:51:22;;;;;;;27.37;21.30;;;12.40;99.90;;;;;;5054422;28;20448;-67
2022/03/27 07:53:47;;;;;;;28.57;21.70;;;12.20;99.90;;;;;;5055324;28;20193;-67
2022/03/27 07:56:13;;;;;;;30.03;22.20;;;12.10;99.90;;;;;;5055263;28;20198;-67
2022/03/27 07:58:39;;;;;;;28.57;21.47;;;11.90;99.90;;;;;;5054637;28;20647;-67
2022/03/27 08:01:06;;;;;;;30.07;21.20;;;12.00;99.90;;;;;;5054798;28;20637;-67
2022/03/27 08:03:33;;;;;;;24.83;19.27;;;12.10;99.90;;;;;;5053594;28;20923;-67
2022/03/27 08:06:00;;;;;;;25.53;20.33;;;12.20;99.90;;;;;;5055303;28;20427;-67
2022/03/27 08:08:26;;;;;;;30.90;20.00;;;12.30;99.90;;;;;;5054146;28;20768;-67
2022/03/27 08:10:52;;;;;;;26.80;20.53;;;12.40;99.90;;;;;;5054989;28;20459;-67
2022/03/27 08:13:18;;;;;;;26.80;21.03;;;12.50;99.90;;;;;;5054952;28;20185;-67
2022/03/27 08:15:43;;;;;;;27.53;19.50;;;12.60;99.90;;;;;;5053045;28;20212;-67
2022/03/27 08:18:15;;;;;;;29.23;21.37;;;12.60;99.90;;;;;;5054558;28;20174;-67
2022/03/27 08:20:41;;;;;;;25.83;20.03;;;12.70;99.90;;;;;;5053935;28;20221;-67
2022/03/27 08:23:08;;;;;;;25.37;18.97;;;12.70;99.90;;;;;;5054615;28;20453;-67
2022/03/27 08:28:20;;;;;;;27.67;20.90;;;12.70;99.90;;;;;;5054715;28;20405;-67
2022/03/27 08:30:47;;;;;;;27.97;21.07;;;12.50;99.90;;;;;;5054109;28;20759;-66
2022/03/27 08:33:14;;;;;;;28.83;20.27;;;12.50;99.90;;;;;;5053814;28;20605;-67
2022/03/27 08:35:42;;;;;;;27.60;19.80;;;12.50;99.90;;;;;;5053925;28;20412;-67
2022/03/27 08:38:10;;;;;;;24.73;18.70;;;12.70;99.90;;;;;;5054399;28;20419;-67
2022/03/27 08:40:38;;;;;;;28.83;20.87;;;12.80;99.90;;;;;;5053698;28;20416;-67
2022/03/27 08:43:09;;;;;;;25.87;20.30;;;12.80;99.90;;;;;;5053253;28;20402;-67
2022/03/27 08:45:34;;;;;;;24.90;19.70;;;12.80;99.90;;;;;;5054100;28;20406;-67
2022/03/27 08:48:00;;;;;;;22.57;19.50;;;12.80;99.90;;;;;;5053104;28;20410;-67
2022/03/27 08:50:45;;;;;;;25.87;19.27;;;12.90;99.90;;;;;;5053960;28;20173;-67
2022/03/27 08:53:14;;;;;;;24.40;19.30;;;13.00;99.90;;;;;;5054015;28;20565;-67
2022/03/27 08:56:12;;;;;;;23.83;18.37;;;13.10;99.90;;;;;;5053517;28;20457;-67
2022/03/27 08:58:40;;;;;;;23.57;17.27;;;13.20;99.90;;;;;;5030556;28;20453;-66
2022/03/27 09:01:07;;;;;;;24.43;18.77;;;13.20;99.90;;;;;;5052713;28;20773;-67
2022/03/27 09:03:34;;;;;;;24.10;18.17;;;13.10;99.90;;;;;;5053390;28;20426;-67
2022/03/27 09:06:01;;;;;;;20.97;17.17;;;13.20;99.90;;;;;;5053581;28;20422;-67
2022/03/27 09:08:31;;;;;;;22.53;16.97;;;13.30;99.90;;;;;;5052985;28;20885;-67
2022/03/27 09:10:58;;;;;;;23.77;18.60;;;13.40;99.90;;;;;;5053759;28;20934;-68
2022/03/27 09:13:24;;;;;;;18.37;15.90;;;13.50;99.90;;;;;;5053794;28;20510;-67
2022/03/27 09:16:00;;;;;;;18.47;16.07;;;13.60;99.90;;;;;;5053980;28;20419;-67
2022/03/27 09:18:26;;;;;;;19.90;15.90;;;13.70;99.90;;;;;;5053039;28;20421;-74
2022/03/27 09:20:52;;;;;;;14.17;12.77;;;13.70;99.90;;;;;;5053701;28;20466;-67
2022/03/27 09:23:26;;;;;;;15.43;13.30;;;13.80;99.90;;;;;;5053837;28;20505;-67
2022/03/27 09:25:56;;;;;;;13.10;11.43;;;13.80;99.90;;;;;;5053327;28;20770;-67
2022/03/27 09:28:39;;;;;;;13.80;11.90;;;13.40;99.90;;;;;;5053501;28;20494;-67
2022/03/27 09:31:21;;;;;;;13.33;11.70;;;13.20;99.90;;;;;;5053581;28;20509;-67
2022/03/27 09:33:59;;;;;;;13.63;12.20;;;13.10;99.90;;;;;;5051668;28;20420;-67
2022/03/27 09:36:29;;;;;;;12.03;10.70;;;13.20;99.90;;;;;;5053635;28;20422;-67
2022/03/27 09:39:19;;;;;;;13.70;11.13;;;13.10;99.90;;;;;;5053327;28;20501;-67
2022/03/27 09:41:54;;;;;;;18.03;13.90;;;13.20;99.90;;;;;;5052670;28;20433;-67
2022/03/27 09:44:22;;;;;;;14.53;12.60;;;13.00;99.90;;;;;;5052322;28;20412;-67
2022/03/27 09:46:51;;;;;;;17.10;13.37;;;13.00;99.90;;;;;;5052484;28;20756;-67
2022/03/27 09:49:22;;;;;;;16.37;13.83;;;13.10;99.90;;;;;;5053138;28;20774;-67
2022/03/27 09:52:14;;;;;;;17.87;14.63;;;13.20;99.90;;;;;;5052478;28;20811;-67
2022/03/27 09:54:46;;;;;;;19.30;15.70;;;13.40;99.90;;;;;;5052268;28;20392;-67
2022/03/27 09:57:29;;;;;;;19.20;15.43;;;13.50;99.90;;;;;;5053133;28;20763;-67
2022/03/27 09:59:57;;;;;;;15.80;13.03;;;13.60;99.90;;;;;;5052888;28;20431;-67
2022/03/27 10:02:26;;;;;;;17.70;14.83;;;13.60;99.90;;;;;;5052938;28;20419;-67
2022/03/27 10:05:01;;;;;;;16.00;14.30;;;13.60;99.90;;;;;;5052233;28;20502;-67
2022/03/27 10:07:38;;;;;;;17.33;14.43;;;13.70;99.90;;;;;;5052916;28;20414;-67
2022/03/27 10:10:12;;;;;;;16.50;14.67;;;13.80;99.90;;;;;;5052828;28;20402;-67
2022/03/27 10:12:40;;;;;;;14.97;13.20;;;13.90;99.90;;;;;;5052093;28;20454;-67
2022/03/27 10:15:08;;;;;;;14.50;12.67;;;14.10;99.90;;;;;;5051062;28;20916;-67
2022/03/27 10:17:36;;;;;;;16.37;13.70;;;14.00;99.90;;;;;;5051174;28;20435;-68
2022/03/27 10:20:12;;;;;;;16.20;13.87;;;13.80;99.90;;;;;;5052593;28;20497;-67
2022/03/27 10:22:45;;;;;;;17.10;13.87;;;13.50;99.90;;;;;;5052025;28;20858;-67
2022/03/27 10:25:13;;;;;;;17.63;14.70;;;13.60;99.90;;;;;;5052682;28;20410;-67
2022/03/27 10:27:41;;;;;;;15.17;12.60;;;13.70;99.90;;;;;;5051938;28;20767;-67
2022/03/27 10:30:09;;;;;;;16.30;14.13;;;13.80;99.90;;;;;;5052297;28;20412;-67
2022/03/27 10:32:35;;;;;;;16.27;14.10;;;13.90;99.90;;;;;;5051766;28;20474;-67
2022/03/27 10:35:45;;;;;;;15.13;13.30;;;14.00;99.90;;;;;;5052238;28;20793;-67
2022/03/27 10:38:45;;;;;;;14.30;12.40;;;14.00;99.90;;;;;;5029071;28;20438;-67
2022/03/27 10:41:55;;;;;;;15.23;12.87;;;13.70;99.90;;;;;;5052139;28;20426;-66
2022/03/27 10:44:31;;;;;;;17.90;14.13;;;13.80;99.90;;;;;;5029577;28;20443;-67
2022/03/27 10:47:15;;;;;;;15.93;12.77;;;13.80;99.90;;;;;;5052417;28;20403;-67
2022/03/27 10:50:01;;;;;;;14.20;12.40;;;14.00;99.90;;;;;;5051710;28;20448;-67
2022/03/27 10:52:31;;;;;;;15.60;13.50;;;14.00;99.90;;;;;;5044829;28;20466;-67
2022/03/27 10:55:06;;;;;;;15.27;12.10;;;14.10;99.90;;;;;;5052616;28;20859;-67
2022/03/27 10:57:34;;;;;;;15.27;12.60;;;14.20;99.90;;;;;;5055274;28;20407;-73
2022/03/27 11:00:01;;;;;;;16.30;13.00;;;14.20;99.90;;;;;;5056296;28;20407;-67
2022/03/27 11:02:53;;;;;;;13.83;12.43;;;14.20;99.90;;;;;;5056624;28;20434;-67
2022/03/27 11:05:31;;;;;;;13.43;12.00;;;14.20;99.90;;;;;;5056273;28;20502;-67
2022/03/27 11:08:18;;;;;;;16.60;12.87;;;14.40;99.90;;;;;;5056155;28;20483;-67
2022/03/27 11:10:49;;;;;;;15.63;13.87;;;14.50;99.90;;;;;;5055193;28;20505;-67
2022/03/27 11:13:36;;;;;;;14.70;13.20;;;14.60;99.90;;;;;;5056167;28;20760;-67
2022/03/27 11:16:11;;;;;;;14.27;12.77;;;14.70;99.90;;;;;;5056010;28;20397;-67
2022/03/27 11:18:46;;;;;;;13.27;11.87;;;14.70;99.90;;;;;;5055119;28;20950;-67
2022/03/27 11:21:14;;;;;;;13.77;12.37;;;14.90;99.90;;;;;;5056067;28;20462;-67
2022/03/27 11:23:41;;;;;;;15.53;12.67;;;14.90;99.70;;;;;;5037555;28;20425;-67
2022/03/27 11:26:19;;;;;;;13.43;12.03;;;15.00;99.70;;;;;;5055627;28;20906;-67
2022/03/27 11:28:48;;;;;;;14.33;12.80;;;15.10;99.40;;;;;;5055175;28;20410;-67
2022/03/27 11:31:15;;;;;;;14.30;12.80;;;15.40;99.90;;;;;;5055816;28;20466;-67
2022/03/27 11:33:41;;;;;;;13.87;12.50;;;15.60;99.40;;;;;;5055141;28;20422;-67
2022/03/27 11:36:11;;;;;;;15.23;13.23;;;15.80;97.30;;;;;;5055638;28;20426;-67
2022/03/27 11:39:16;;;;;;;13.83;12.30;;;15.70;97.20;;;;;;5054705;28;20613;-67
2022/03/27 11:41:47;;;;;;;15.13;13.03;;;15.80;97.90;;;;;;5049441;28;20450;-67
2022/03/27 11:44:15;;;;;;;13.13;11.83;;;16.10;96.90;;;;;;5055750;28;20485;-67
2022/03/27 11:46:44;;;;;;;14.90;13.50;;;16.20;96.20;;;;;;5054902;28;20461;-67
2022/03/27 11:49:11;;;;;;;15.77;14.07;;;16.40;95.40;;;;;;5054234;28;20802;-67
2022/03/27 11:51:37;;;;;;;14.23;12.73;;;16.30;95.30;;;;;;5053648;28;20458;-67
2022/03/27 11:54:15;;;;;;;15.53;13.97;;;16.30;95.60;;;;;;5055340;28;20927;-67
2022/03/27 11:56:58;;;;;;;15.43;13.20;;;16.60;96.10;;;;;;5054834;28;20392;-67
2022/03/27 11:59:27;;;;;;;15.30;13.80;;;16.40;95.30;;;;;;5053817;28;20407;-67
2022/03/27 12:01:55;;;;;;;13.57;12.23;;;16.60;95.80;;;;;;5053404;28;20431;-67
2022/03/27 12:04:21;;;;;;;13.33;11.90;;;16.70;95.00;;;;;;5055094;28;20439;-67
2022/03/27 12:06:53;;;;;;;12.97;11.60;;;16.90;94.70;;;;;;5054880;28;20407;-67
2022/03/27 12:09:30;;;;;;;16.40;14.07;;;17.30;94.40;;;;;;5054409;28;20400;-67
2022/03/27 12:12:14;;;;;;;14.70;13.07;;;17.60;93.90;;;;;;5053095;28;20455;-67
2022/03/27 12:14:57;;;;;;;16.27;14.60;;;17.90;94.60;;;;;;5054520;28;20397;-67
2022/03/27 12:17:23;;;;;;;15.07;13.57;;;17.90;92.30;;;;;;5053930;28;20412;-67
2022/03/27 12:20:05;;;;;;;13.53;12.13;;;17.80;91.80;;;;;;5053729;28;21029;-67
2022/03/27 12:22:51;;;;;;;13.87;12.47;;;17.70;92.80;;;;;;5054867;28;20442;-67
2022/03/27 12:25:28;;;;;;;13.50;11.40;;;17.70;92.10;;;;;;5054235;28;20424;-67
2022/03/27 12:30:50;;;;;;;13.10;11.70;;;17.30;92.50;;;;;;5053622;28;20427;-67
2022/03/27 12:33:24;;;;;;;12.97;11.60;;;17.00;92.80;;;;;;5054134;28;20465;-67
2022/03/27 12:36:10;;;;;;;13.57;12.17;;;16.80;92.50;;;;;;5053380;28;20904;-67
2022/03/27 12:38:36;;;;;;;13.43;12.03;;;16.60;93.20;;;;;;5054742;28;20463;-67
2022/03/27 12:41:06;;;;;;;13.37;12.03;;;16.90;93.70;;;;;;5053241;28;20444;-67
2022/03/27 12:43:54;;;;;;;13.30;11.90;;;17.10;94.00;;;;;;5054024;28;20918;-66
2022/03/27 12:46:23;;;;;;;12.07;10.97;;;17.40;93.30;;;;;;5054534;28;20444;-67
2022/03/27 12:49:00;;;;;;;12.30;11.10;;;17.70;92.20;;;;;;5053614;28;20483;-67